createdAt,value
2023-04-23T00:01:06.402Z,51.61
2023-04-23T00:03:41.751Z,51.95
2023-04-23T00:06:14.490Z,52.46
2023-04-23T00:08:47.810Z,52.54
2023-04-23T00:11:19.668Z,52.36
2023-04-23T00:13:51.819Z,53.03
2023-04-23T00:16:24.771Z,53.53
2023-04-23T00:18:56.626Z,53.62
2023-04-23T00:21:28.434Z,53.83
2023-04-23T00:24:00.187Z,54.09
2023-04-23T00:26:57.426Z,54.22
2023-04-23T00:29:33.627Z,54.65
2023-04-23T00:32:05.444Z,54.20
2023-04-23T00:34:43.514Z,54.94
2023-04-23T00:37:16.280Z,54.76
2023-04-23T00:39:48.251Z,55.24
2023-04-23T00:42:20.465Z,54.77
2023-04-23T00:44:53.212Z,55.56
2023-04-23T00:47:25.407Z,56.09
2023-04-23T00:49:58.143Z,55.90
2023-04-23T00:52:33.104Z,55.49
2023-04-23T00:55:05.599Z,55.67
2023-04-23T00:57:38.495Z,55.71
2023-04-23T01:00:13.984Z,55.77
2023-04-23T01:02:47.781Z,55.24
2023-04-23T01:05:20.325Z,55.38
2023-04-23T01:07:52.135Z,55.87
2023-04-23T01:13:22.562Z,55.28
2023-04-23T01:15:57.492Z,54.60
2023-04-23T01:21:26.245Z,55.73
2023-04-23T01:23:58.450Z,55.47
2023-04-23T01:26:30.311Z,55.66
2023-04-23T01:29:27.478Z,56.19
2023-04-23T01:32:00.169Z,56.95
2023-04-23T01:34:32.420Z,56.93
2023-04-23T01:37:05.306Z,56.30
2023-04-23T01:39:37.448Z,56.73
2023-04-23T01:42:09.338Z,57.24
2023-04-23T01:44:50.048Z,57.38
2023-04-23T01:47:23.118Z,57.14
2023-04-23T01:49:55.497Z,57.46
2023-04-23T01:52:27.690Z,57.51
2023-04-23T01:55:02.384Z,58.09
2023-04-23T01:57:34.701Z,57.21
2023-04-23T02:00:11.182Z,57.12
2023-04-23T02:02:46.665Z,56.37
2023-04-23T02:05:20.042Z,56.36
2023-04-23T02:07:52.725Z,55.85
2023-04-23T02:10:25.783Z,55.40
2023-04-23T02:13:01.199Z,55.66
2023-04-23T02:15:35.066Z,56.00
2023-04-23T02:18:06.852Z,55.99
2023-04-23T02:20:41.724Z,55.72
2023-04-23T02:23:13.447Z,55.88
2023-04-23T02:25:46.124Z,55.70
2023-04-23T02:28:19.972Z,55.66
2023-04-23T02:30:51.743Z,56.10
2023-04-23T02:33:23.485Z,55.75
2023-04-23T02:35:55.405Z,55.88
2023-04-23T02:38:27.076Z,56.37
2023-04-23T02:40:58.956Z,56.70
2023-04-23T02:43:31.088Z,56.25
2023-04-23T02:46:08.608Z,56.47
2023-04-23T02:48:43.041Z,56.32
2023-04-23T02:54:11.915Z,56.26
2023-04-23T02:56:44.959Z,56.14
2023-04-23T02:59:16.704Z,56.17
2023-04-23T03:02:16.333Z,56.62
2023-04-23T03:04:48.034Z,56.60
2023-04-23T03:07:19.791Z,56.31
2023-04-23T03:09:51.828Z,56.68
2023-04-23T03:12:23.943Z,56.80
2023-04-23T03:14:58.486Z,56.38
2023-04-23T03:17:35.187Z,56.51
2023-04-23T03:20:10.605Z,57.02
2023-04-23T03:22:43.511Z,57.01
2023-04-23T03:25:15.424Z,56.94
2023-04-23T03:27:47.197Z,57.22
2023-04-23T03:30:22.873Z,57.16
2023-04-23T03:32:58.124Z,57.25
2023-04-23T03:35:30.591Z,57.76
2023-04-23T03:38:05.281Z,58.01
2023-04-23T03:40:39.629Z,57.89
2023-04-23T03:43:13.236Z,58.36
2023-04-23T03:46:08.121Z,58.28
2023-04-23T03:48:43.427Z,58.23
2023-04-23T03:51:22.216Z,58.14
2023-04-23T03:53:54.692Z,58.27
2023-04-23T03:56:46.091Z,58.20
2023-04-23T03:59:23.398Z,57.73
2023-04-23T04:01:59.566Z,57.24
2023-04-23T04:04:32.869Z,57.75
2023-04-23T04:07:07.688Z,57.75
2023-04-23T04:09:39.848Z,57.60
2023-04-23T04:12:12.279Z,57.57
2023-04-23T04:14:44.224Z,57.92
2023-04-23T04:17:16.319Z,57.52
2023-04-23T04:19:48.597Z,57.85
2023-04-23T04:22:20.676Z,57.85
2023-04-23T04:24:52.799Z,57.85
2023-04-23T04:27:24.534Z,57.51
2023-04-23T04:29:56.212Z,58.35
2023-04-23T04:32:29.099Z,58.35
2023-04-23T04:35:02.713Z,58.39
2023-04-23T04:37:35.460Z,58.83
2023-04-23T04:43:08.396Z,59.33
2023-04-23T04:45:40.047Z,59.37
2023-04-23T04:51:07.678Z,59.55
2023-04-23T04:53:39.477Z,59.21
2023-04-23T04:56:11.247Z,60.46
2023-04-23T04:58:43.057Z,60.33
2023-04-23T05:01:15.040Z,60.68
2023-04-23T05:03:47.019Z,60.52
2023-04-23T05:06:18.905Z,60.46
2023-04-23T05:08:50.929Z,60.80
2023-04-23T05:11:22.743Z,60.92
2023-04-23T05:13:54.492Z,60.65
2023-04-23T05:16:26.238Z,60.14
2023-04-23T05:19:23.751Z,59.65
2023-04-23T05:21:55.588Z,59.09
2023-04-23T05:24:27.309Z,59.94
2023-04-23T05:26:59.008Z,60.50
2023-04-23T05:29:30.806Z,60.44
2023-04-23T05:32:03.934Z,60.14
2023-04-23T05:37:31.223Z,59.67
2023-04-23T05:40:04.800Z,60.19
2023-04-23T05:42:39.419Z,59.92
2023-04-23T05:45:36.251Z,59.63
2023-04-23T05:48:07.964Z,59.53
2023-04-23T05:50:39.886Z,59.77
2023-04-23T05:53:11.661Z,58.94
2023-04-23T05:55:43.584Z,58.79
2023-04-23T05:58:19.310Z,58.69
2023-04-23T06:00:56.964Z,58.42
2023-04-23T06:03:28.821Z,58.02
2023-04-23T06:06:00.908Z,58.03
2023-04-23T06:08:32.801Z,58.37
2023-04-23T06:11:07.802Z,57.67
2023-04-23T06:13:43.531Z,56.52
2023-04-23T06:16:15.870Z,55.55
2023-04-23T06:18:47.565Z,54.91
2023-04-23T06:21:22.380Z,53.89
2023-04-23T06:23:54.632Z,53.27
2023-04-23T06:26:26.798Z,52.67
2023-04-23T06:29:02.779Z,52.31
2023-04-23T06:32:02.646Z,51.48
2023-04-23T06:34:34.415Z,51.08
2023-04-23T06:40:02.650Z,50.25
2023-04-23T06:42:34.370Z,50.05
2023-04-23T06:45:26.363Z,50.21
2023-04-23T06:47:58.079Z,50.17
2023-04-23T06:50:30.003Z,49.45
2023-04-23T06:53:01.741Z,49.18
2023-04-23T06:55:33.600Z,49.13
2023-04-23T06:58:08.380Z,48.99
2023-04-23T07:00:40.600Z,47.96
2023-04-23T07:03:12.624Z,47.69
2023-04-23T07:05:44.454Z,47.79
2023-04-23T07:08:16.240Z,47.45
2023-04-23T07:10:48.423Z,47.93
2023-04-23T07:13:20.144Z,48.12
2023-04-23T07:15:51.972Z,48.13
2023-04-23T07:18:23.662Z,47.97
2023-04-23T07:20:55.956Z,47.90
2023-04-23T07:23:27.655Z,48.07
2023-04-23T07:26:25.366Z,47.91
2023-04-23T07:28:57.118Z,47.71
2023-04-23T07:31:28.851Z,47.98
2023-04-23T07:34:01.327Z,47.98
2023-04-23T07:36:33.555Z,47.63
2023-04-23T07:39:08.571Z,47.79
2023-04-23T07:44:37.648Z,47.55
2023-04-23T07:47:09.459Z,47.55
2023-04-23T07:49:41.588Z,47.07
2023-04-23T07:52:38.059Z,46.64
2023-04-23T07:55:09.954Z,46.80
2023-04-23T07:57:41.725Z,47.22
2023-04-23T08:00:14.381Z,46.96
2023-04-23T08:02:47.487Z,47.17
2023-04-23T08:05:19.869Z,46.94
2023-04-23T08:10:47.490Z,47.20
2023-04-23T08:13:19.806Z,47.04
2023-04-23T08:15:52.178Z,46.90
2023-04-23T08:18:24.091Z,47.01
2023-04-23T08:20:56.761Z,47.19
2023-04-23T08:23:28.582Z,47.77
2023-04-23T08:26:01.137Z,47.52
2023-04-23T08:28:39.318Z,47.27
2023-04-23T08:31:22.588Z,47.02
2023-04-23T08:33:57.569Z,46.28
2023-04-23T08:36:29.534Z,44.95
2023-04-23T08:39:01.665Z,44.56
2023-04-23T08:41:39.834Z,43.78
2023-04-23T08:44:18.767Z,43.55
2023-04-23T08:46:51.160Z,43.09
2023-04-23T08:49:22.959Z,42.73
2023-04-23T08:51:55.183Z,42.50
2023-04-23T08:54:31.084Z,41.45
2023-04-23T08:57:06.122Z,42.28
2023-04-23T08:59:43.830Z,42.58
2023-04-23T09:02:17.258Z,42.31
2023-04-23T09:05:15.422Z,42.36
2023-04-23T09:07:47.190Z,42.51
2023-04-23T09:10:18.913Z,42.85
2023-04-23T09:12:50.706Z,43.03
2023-04-23T09:15:24.464Z,43.78
2023-04-23T09:17:59.009Z,44.10
2023-04-23T09:20:34.791Z,44.22
2023-04-23T09:23:08.142Z,44.28
2023-04-23T09:25:39.904Z,44.27
2023-04-23T09:28:12.192Z,44.65
2023-04-23T09:30:45.430Z,44.92
2023-04-23T09:33:17.711Z,45.26
2023-04-23T09:35:49.751Z,45.22
2023-04-23T09:38:21.415Z,45.53
2023-04-23T09:40:53.130Z,45.50
2023-04-23T09:43:30.672Z,45.43
2023-04-23T09:46:02.448Z,45.37
2023-04-23T09:48:42.236Z,45.22
2023-04-23T09:51:41.546Z,44.86
2023-04-23T09:54:18.523Z,45.08
2023-04-23T09:56:53.978Z,45.28
2023-04-23T09:59:46.015Z,45.26
2023-04-23T10:02:19.995Z,45.56
2023-04-23T10:05:03.307Z,45.52
2023-04-23T10:07:43.850Z,45.99
2023-04-23T10:10:16.300Z,46.01
2023-04-23T10:12:54.726Z,46.28
2023-04-23T10:15:33.312Z,46.54
2023-04-23T10:18:06.219Z,47.27
2023-04-23T10:20:38.154Z,47.75
2023-04-23T10:23:12.657Z,48.51
2023-04-23T10:25:45.845Z,49.14
2023-04-23T10:28:26.481Z,49.83
2023-04-23T10:30:59.735Z,50.15
2023-04-23T10:33:39.776Z,50.70
2023-04-23T10:36:15.077Z,50.65
2023-04-23T10:38:57.399Z,50.83
2023-04-23T10:41:37.599Z,50.66
2023-04-23T10:44:15.969Z,50.99
2023-04-23T10:46:58.508Z,51.30
2023-04-23T10:49:32.129Z,51.20
2023-04-23T10:52:19.356Z,50.95
2023-04-23T10:55:02.283Z,51.11
2023-04-23T10:58:07.381Z,51.51
2023-04-23T11:00:41.970Z,51.09
2023-04-23T11:03:37.974Z,51.03
2023-04-23T11:06:19.572Z,51.26
2023-04-23T11:08:54.801Z,51.42
2023-04-23T11:11:54.881Z,52.07
2023-04-23T11:14:52.593Z,52.49
2023-04-23T11:17:44.258Z,52.94
2023-04-23T11:20:23.927Z,54.05
2023-04-23T11:22:55.942Z,53.61
2023-04-23T11:25:28.723Z,54.42
2023-04-23T11:28:25.644Z,53.83
2023-04-23T11:30:57.792Z,54.72
2023-04-23T11:33:29.569Z,54.40
2023-04-23T11:36:04.103Z,54.21
2023-04-23T11:38:35.799Z,54.00
2023-04-23T11:41:07.779Z,54.16
2023-04-23T11:43:39.537Z,54.85
2023-04-23T11:46:11.258Z,54.93
2023-04-23T11:48:43.028Z,54.77
2023-04-23T11:51:16.110Z,55.16
2023-04-23T11:53:48.651Z,55.53
2023-04-23T11:56:23.962Z,55.47
2023-04-23T11:59:00.320Z,55.45
2023-04-23T12:01:58.809Z,55.30
2023-04-23T12:04:33.297Z,55.30
2023-04-23T12:07:12.968Z,55.43
2023-04-23T12:10:00.146Z,55.45
2023-04-23T12:12:35.562Z,55.55
2023-04-23T12:15:08.426Z,55.37
2023-04-23T12:17:40.224Z,55.66
2023-04-23T12:20:18.181Z,55.81
2023-04-23T12:22:49.941Z,55.63
2023-04-23T12:25:25.837Z,55.37
2023-04-23T12:28:03.857Z,55.02
2023-04-23T12:30:51.074Z,54.27
2023-04-23T12:33:23.119Z,53.97
2023-04-23T12:35:54.885Z,53.96
2023-04-23T12:38:28.916Z,53.77
2023-04-23T12:41:01.933Z,53.57
2023-04-23T12:43:33.755Z,53.02
2023-04-23T12:46:05.526Z,52.78
2023-04-23T12:48:37.240Z,52.26
2023-04-23T12:51:09.403Z,52.18
2023-04-23T12:53:41.119Z,52.57
2023-04-23T12:56:12.839Z,52.74
2023-04-23T12:58:46.606Z,53.37
2023-04-23T13:01:18.389Z,53.32
2023-04-23T13:03:51.005Z,53.46
2023-04-23T13:06:22.963Z,51.71
2023-04-23T13:08:55.969Z,51.87
2023-04-23T13:11:27.734Z,51.75
2023-04-23T13:13:59.502Z,51.75
2023-04-23T13:16:31.429Z,52.12
2023-04-23T13:19:03.222Z,52.18
2023-04-23T13:21:37.934Z,52.04
2023-04-23T13:24:09.600Z,51.18
2023-04-23T13:26:41.427Z,51.13
2023-04-23T13:29:13.304Z,50.49
2023-04-23T13:31:45.567Z,50.21
2023-04-23T13:34:17.301Z,49.90
2023-04-23T13:36:51.078Z,49.87
2023-04-23T13:39:23.930Z,50.31
2023-04-23T13:42:09.141Z,50.16
2023-04-23T13:44:41.814Z,50.41
2023-04-23T13:47:13.583Z,50.10
2023-04-23T13:49:45.380Z,50.20
2023-04-23T13:52:17.072Z,49.88
2023-04-23T13:54:50.544Z,50.07
2023-04-23T13:57:22.321Z,50.38
2023-04-23T13:59:55.451Z,50.55
2023-04-23T14:02:27.446Z,50.79
2023-04-23T14:04:59.364Z,51.28
2023-04-23T14:07:31.130Z,51.75
2023-04-23T14:10:02.844Z,52.68
2023-04-23T14:12:34.576Z,53.33
2023-04-23T14:15:07.780Z,53.79
2023-04-23T14:17:40.754Z,53.75
2023-04-23T14:20:15.612Z,54.54
2023-04-23T14:22:56.606Z,54.99
2023-04-23T14:25:40.026Z,54.73
2023-04-23T14:28:39.195Z,55.42
2023-04-23T14:31:12.927Z,55.35
2023-04-23T14:33:44.696Z,55.58
2023-04-23T14:36:16.863Z,55.90
2023-04-23T14:38:48.508Z,56.21
2023-04-23T14:41:20.318Z,56.87
2023-04-23T14:43:54.985Z,56.81
2023-04-23T14:46:27.198Z,56.76
2023-04-23T14:48:58.950Z,56.85
2023-04-23T14:51:31.349Z,57.14
2023-04-23T14:54:03.311Z,57.31
2023-04-23T14:56:35.013Z,58.08
2023-04-23T14:59:06.819Z,58.05
2023-04-23T15:01:39.056Z,58.13
2023-04-23T15:04:12.914Z,58.43
2023-04-23T15:06:44.714Z,58.84
2023-04-23T15:09:17.032Z,59.07
2023-04-23T15:11:49.064Z,59.58
2023-04-23T15:14:32.139Z,59.89
2023-04-23T15:17:03.863Z,60.20
2023-04-23T15:19:35.610Z,60.18
2023-04-23T15:22:10.044Z,60.17
2023-04-23T15:24:41.792Z,59.73
2023-04-23T15:27:15.032Z,60.03
2023-04-23T15:29:49.722Z,59.61
2023-04-23T15:32:21.624Z,59.86
2023-04-23T15:34:53.347Z,59.92
2023-04-23T15:37:27.794Z,59.69
2023-04-23T15:39:59.531Z,59.62
2023-04-23T15:42:32.456Z,59.38
2023-04-23T15:45:04.470Z,59.32
2023-04-23T15:47:36.748Z,59.25
2023-04-23T15:50:09.736Z,59.48
2023-04-23T15:52:41.920Z,59.51
2023-04-23T15:55:13.693Z,59.51
2023-04-23T15:57:45.521Z,59.73
2023-04-23T16:00:17.460Z,59.50
2023-04-23T16:02:49.341Z,59.24
2023-04-23T16:05:24.583Z,59.23
2023-04-23T16:07:56.304Z,59.02
2023-04-23T16:10:29.916Z,59.24
2023-04-23T16:13:02.856Z,59.39
2023-04-23T16:15:34.646Z,59.48
2023-04-23T16:18:06.561Z,59.59
2023-04-23T16:20:38.313Z,59.60
2023-04-23T16:23:10.072Z,59.87
2023-04-23T16:25:41.864Z,60.16
2023-04-23T16:28:13.876Z,60.23
2023-04-23T16:30:45.814Z,60.48
2023-04-23T16:33:17.508Z,60.28
2023-04-23T16:35:49.269Z,59.93
2023-04-23T16:38:21.003Z,60.09
2023-04-23T16:40:52.753Z,59.93
2023-04-23T16:43:26.537Z,59.79
2023-04-23T16:45:58.316Z,59.80
2023-04-23T16:48:30.582Z,59.58
2023-04-23T16:51:02.359Z,59.41
2023-04-23T16:53:35.868Z,59.60
2023-04-23T16:56:08.833Z,59.23
2023-04-23T16:58:40.568Z,59.17
2023-04-23T17:01:12.303Z,59.15
2023-04-23T17:03:44.984Z,59.22
2023-04-23T17:06:27.589Z,59.59
2023-04-23T17:09:07.849Z,59.47
2023-04-23T17:11:39.548Z,59.53
2023-04-23T17:14:12.233Z,59.27
2023-04-23T17:16:44.623Z,59.12
2023-04-23T17:19:18.165Z,59.18
2023-04-23T17:21:49.974Z,59.43
2023-04-23T17:24:21.709Z,59.74
2023-04-23T17:26:53.453Z,60.34
2023-04-23T17:29:25.625Z,60.54
2023-04-23T17:31:57.409Z,60.87
2023-04-23T17:34:29.199Z,60.97
2023-04-23T17:37:01.196Z,61.19
2023-04-23T17:39:35.980Z,61.25
2023-04-23T17:42:07.950Z,61.42
2023-04-23T17:44:40.987Z,61.74
2023-04-23T17:47:14.240Z,61.78
2023-04-23T17:49:46.035Z,62.03
2023-04-23T17:52:17.856Z,62.32
2023-04-23T17:54:49.650Z,62.51
2023-04-23T17:57:21.415Z,62.72
2023-04-23T17:59:53.165Z,62.86
2023-04-23T18:02:25.020Z,63.05
2023-04-23T18:04:59.328Z,63.22
2023-04-23T18:07:31.082Z,63.42
2023-04-23T18:10:04.305Z,63.44
2023-04-23T18:12:36.116Z,63.84
2023-04-23T18:15:11.077Z,63.96
2023-04-23T18:17:45.457Z,63.72
2023-04-23T18:20:17.323Z,64.09
2023-04-23T18:22:49.427Z,64.02
2023-04-23T18:25:23.469Z,63.99
2023-04-23T18:27:55.152Z,64.31
2023-04-23T18:30:26.958Z,64.21
2023-04-23T18:33:26.117Z,64.44
2023-04-23T18:36:03.924Z,64.43
2023-04-23T18:38:44.854Z,65.17
2023-04-23T18:41:16.683Z,65.06
2023-04-23T18:43:48.444Z,65.40
2023-04-23T18:46:21.166Z,65.53
2023-04-23T18:49:27.885Z,65.52
2023-04-23T18:51:59.537Z,65.84
2023-04-23T18:54:31.479Z,65.93
2023-04-23T18:57:03.331Z,65.85
2023-04-23T18:59:35.841Z,65.86
2023-04-23T19:02:08.489Z,66.33
2023-04-23T19:04:40.462Z,65.93
2023-04-23T19:07:12.353Z,65.91
2023-04-23T19:09:49.657Z,66.00
2023-04-23T19:12:21.428Z,65.97
2023-04-23T19:14:53.113Z,65.86
2023-04-23T19:17:24.902Z,66.36
2023-04-23T19:19:56.668Z,66.40
2023-04-23T19:22:28.424Z,66.62
2023-04-23T19:25:00.132Z,66.89
2023-04-23T19:27:31.955Z,66.82
2023-04-23T19:30:10.107Z,67.02
2023-04-23T19:32:41.889Z,66.86
2023-04-23T19:35:13.585Z,67.43
2023-04-23T19:37:45.725Z,67.49
2023-04-23T19:40:18.516Z,67.64
2023-04-23T19:42:50.673Z,67.49
2023-04-23T19:45:22.425Z,67.22
2023-04-23T19:47:57.175Z,67.32
2023-04-23T19:50:29.715Z,67.35
2023-04-23T19:53:01.677Z,67.28
2023-04-23T19:55:33.758Z,66.77
2023-04-23T19:58:06.686Z,67.08
2023-04-23T20:00:41.425Z,66.46
2023-04-23T20:03:14.757Z,66.71
2023-04-23T20:05:48.223Z,66.82
2023-04-23T20:08:26.640Z,66.62
2023-04-23T20:10:58.521Z,66.22
2023-04-23T20:13:30.431Z,66.07
2023-04-23T20:16:03.038Z,66.26
2023-04-23T20:18:35.903Z,66.37
2023-04-23T20:21:09.224Z,66.59
2023-04-23T20:23:41.012Z,66.32
2023-04-23T20:26:12.801Z,66.34
2023-04-23T20:28:46.423Z,66.17
2023-04-23T20:31:20.016Z,66.17
2023-04-23T20:33:52.801Z,66.64
2023-04-23T20:36:28.783Z,66.49
2023-04-23T20:39:07.768Z,66.88
2023-04-23T20:41:40.165Z,66.77
2023-04-23T20:44:13.274Z,66.61
2023-04-23T20:46:45.523Z,67.21
2023-04-23T20:49:18.359Z,67.31
2023-04-23T20:51:50.055Z,67.03
2023-04-23T20:54:21.713Z,67.17
2023-04-23T20:56:54.316Z,67.48
2023-04-23T20:59:26.216Z,67.83
2023-04-23T21:01:58.084Z,67.47
2023-04-23T21:04:30.081Z,68.21
2023-04-23T21:07:02.082Z,68.27
2023-04-23T21:09:33.897Z,67.92
2023-04-23T21:12:05.869Z,68.46
2023-04-23T21:14:37.682Z,68.71
2023-04-23T21:17:09.513Z,68.92
2023-04-23T21:19:41.593Z,68.80
2023-04-23T21:22:13.452Z,68.95
2023-04-23T21:24:45.138Z,69.15
2023-04-23T21:27:21.674Z,70.18
2023-04-23T21:29:53.626Z,70.23
2023-04-23T21:32:25.578Z,70.45
2023-04-23T21:34:57.319Z,70.75
2023-04-23T21:37:28.984Z,70.84
2023-04-23T21:40:04.260Z,71.33
2023-04-23T21:42:36.429Z,71.24
2023-04-23T21:45:08.675Z,70.85
2023-04-23T21:47:41.233Z,71.48
2023-04-23T21:50:13.483Z,71.71
2023-04-23T21:52:45.299Z,71.64
2023-04-23T21:55:17.091Z,71.55
2023-04-23T21:57:49.492Z,71.43
2023-04-23T22:00:21.810Z,72.13
2023-04-23T22:02:56.672Z,72.11
2023-04-23T22:05:28.741Z,72.36
2023-04-23T22:08:00.438Z,72.50
2023-04-23T22:10:32.335Z,72.59
2023-04-23T22:13:04.050Z,72.51
2023-04-23T22:15:36.383Z,72.79
2023-04-23T22:18:08.548Z,73.35
2023-04-23T22:20:40.422Z,73.48
2023-04-23T22:23:12.066Z,73.68
2023-04-23T22:25:44.902Z,73.52
2023-04-23T22:28:16.869Z,73.41
2023-04-23T22:30:50.119Z,73.52
2023-04-23T22:33:21.781Z,73.53
2023-04-23T22:35:53.500Z,73.87
2023-04-23T22:38:25.301Z,73.80
2023-04-23T22:40:57.045Z,74.13
2023-04-23T22:43:28.740Z,74.30
2023-04-23T22:46:01.523Z,74.68
2023-04-23T22:48:33.669Z,74.90
2023-04-23T22:51:05.463Z,75.31
2023-04-23T22:53:37.157Z,75.50
2023-04-23T22:56:09.040Z,75.48
2023-04-23T22:58:40.761Z,75.46
2023-04-23T23:01:12.493Z,75.72
2023-04-23T23:03:44.349Z,75.47
2023-04-23T23:06:17.794Z,75.54
2023-04-23T23:08:49.578Z,75.28
2023-04-23T23:11:21.525Z,75.58
2023-04-23T23:13:53.215Z,75.50
2023-04-23T23:16:25.660Z,75.70
2023-04-23T23:18:58.043Z,76.10
2023-04-23T23:21:30.291Z,76.46
2023-04-23T23:24:02.009Z,76.45
2023-04-23T23:26:33.747Z,76.37
2023-04-23T23:29:05.462Z,76.28
2023-04-23T23:31:37.294Z,76.07
2023-04-23T23:34:09.085Z,76.68
2023-04-23T23:36:41.197Z,76.73
2023-04-23T23:39:13.349Z,77.15
2023-04-23T23:41:46.714Z,77.50
2023-04-23T23:44:18.447Z,77.56
2023-04-23T23:46:53.933Z,77.88
2023-04-23T23:49:25.858Z,77.41
2023-04-23T23:51:57.951Z,77.85
2023-04-23T23:54:29.691Z,77.57
2023-04-23T23:57:05.427Z,77.56
2023-04-23T23:59:37.337Z,77.61
